sensor_id;sensor_type;location;lat;lon;timestamp;P1;durP1;ratioP1;P2;durP2;ratioP2
63536;SDS011;49686;51.880;5.632;2023-06-10T00:00:04;7.07;;;5.82;;
63536;SDS011;49686;51.880;5.632;2023-06-10T00:02:32;6.88;;;6.03;;
63536;SDS011;49686;51.880;5.632;2023-06-10T00:04:59;9.05;;;7.07;;
63536;SDS011;49686;51.880;5.632;2023-06-10T00:07:26;8.77;;;6.38;;
63536;SDS011;49686;51.880;5.632;2023-06-10T00:09:53;9.55;;;6.07;;
63536;SDS011;49686;51.880;5.632;2023-06-10T00:12:19;11.38;;;7.25;;
63536;SDS011;49686;51.880;5.632;2023-06-10T00:14:46;7.22;;;6.18;;
63536;SDS011;49686;51.880;5.632;2023-06-10T00:17:15;6.93;;;6.22;;
63536;SDS011;49686;51.880;5.632;2023-06-10T00:19:41;6.93;;;6.22;;
63536;SDS011;49686;51.880;5.632;2023-06-10T00:22:08;9.68;;;6.00;;
63536;SDS011;49686;51.880;5.632;2023-06-10T00:24:35;7.07;;;6.32;;
63536;SDS011;49686;51.880;5.632;2023-06-10T00:27:02;7.90;;;6.50;;
63536;SDS011;49686;51.880;5.632;2023-06-10T00:29:29;10.57;;;6.80;;
63536;SDS011;49686;51.880;5.632;2023-06-10T00:31:55;7.90;;;6.35;;
63536;SDS011;49686;51.880;5.632;2023-06-10T00:34:24;8.88;;;6.43;;
63536;SDS011;49686;51.880;5.632;2023-06-10T00:36:51;9.05;;;6.55;;
63536;SDS011;49686;51.880;5.632;2023-06-10T00:39:18;7.15;;;6.38;;
63536;SDS011;49686;51.880;5.632;2023-06-10T00:41:44;7.30;;;6.40;;
63536;SDS011;49686;51.880;5.632;2023-06-10T00:44:11;7.75;;;6.43;;
63536;SDS011;49686;51.880;5.632;2023-06-10T00:46:38;8.88;;;6.82;;
63536;SDS011;49686;51.880;5.632;2023-06-10T00:49:05;11.35;;;7.15;;
63536;SDS011;49686;51.880;5.632;2023-06-10T00:51:33;8.13;;;6.57;;
63536;SDS011;49686;51.880;5.632;2023-06-10T00:54:00;9.95;;;7.80;;
63536;SDS011;49686;51.880;5.632;2023-06-10T00:56:27;10.48;;;7.43;;
63536;SDS011;49686;51.880;5.632;2023-06-10T00:58:54;9.93;;;6.80;;
63536;SDS011;49686;51.880;5.632;2023-06-10T01:01:21;8.48;;;6.55;;
63536;SDS011;49686;51.880;5.632;2023-06-10T01:03:48;10.63;;;8.25;;
63536;SDS011;49686;51.880;5.632;2023-06-10T01:06:18;8.98;;;6.68;;
63536;SDS011;49686;51.880;5.632;2023-06-10T01:08:52;12.25;;;6.53;;
63536;SDS011;49686;51.880;5.632;2023-06-10T01:11:28;8.60;;;6.97;;
63536;SDS011;49686;51.880;5.632;2023-06-10T01:14:00;9.73;;;7.85;;
63536;SDS011;49686;51.880;5.632;2023-06-10T01:16:28;8.52;;;7.07;;
63536;SDS011;49686;51.880;5.632;2023-06-10T01:18:55;10.70;;;7.40;;
63536;SDS011;49686;51.880;5.632;2023-06-10T01:21:24;8.80;;;7.50;;
63536;SDS011;49686;51.880;5.632;2023-06-10T01:23:51;9.68;;;6.90;;
63536;SDS011;49686;51.880;5.632;2023-06-10T01:26:20;9.50;;;6.85;;
63536;SDS011;49686;51.880;5.632;2023-06-10T01:28:51;10.23;;;6.70;;
63536;SDS011;49686;51.880;5.632;2023-06-10T01:31:23;9.15;;;7.07;;
63536;SDS011;49686;51.880;5.632;2023-06-10T01:34:00;9.48;;;6.63;;
63536;SDS011;49686;51.880;5.632;2023-06-10T01:36:30;9.18;;;6.93;;
63536;SDS011;49686;51.880;5.632;2023-06-10T01:38:59;9.77;;;6.72;;
63536;SDS011;49686;51.880;5.632;2023-06-10T01:41:28;9.32;;;7.00;;
63536;SDS011;49686;51.880;5.632;2023-06-10T01:43:55;8.57;;;6.40;;
63536;SDS011;49686;51.880;5.632;2023-06-10T01:46:22;9.50;;;6.70;;
63536;SDS011;49686;51.880;5.632;2023-06-10T01:48:49;8.25;;;6.60;;
63536;SDS011;49686;51.880;5.632;2023-06-10T01:51:16;9.15;;;6.85;;
63536;SDS011;49686;51.880;5.632;2023-06-10T01:53:44;7.20;;;6.30;;
63536;SDS011;49686;51.880;5.632;2023-06-10T01:56:11;9.55;;;6.57;;
63536;SDS011;49686;51.880;5.632;2023-06-10T01:58:38;8.93;;;6.35;;
63536;SDS011;49686;51.880;5.632;2023-06-10T02:01:05;8.27;;;6.20;;
63536;SDS011;49686;51.880;5.632;2023-06-10T02:03:32;9.40;;;6.22;;
63536;SDS011;49686;51.880;5.632;2023-06-10T02:05:59;8.15;;;6.18;;
63536;SDS011;49686;51.880;5.632;2023-06-10T02:08:25;9.00;;;6.55;;
63536;SDS011;49686;51.880;5.632;2023-06-10T02:10:54;8.88;;;6.47;;
63536;SDS011;49686;51.880;5.632;2023-06-10T02:13:21;9.13;;;6.35;;
63536;SDS011;49686;51.880;5.632;2023-06-10T02:15:47;8.88;;;6.63;;
63536;SDS011;49686;51.880;5.632;2023-06-10T02:18:14;10.13;;;6.40;;
63536;SDS011;49686;51.880;5.632;2023-06-10T02:20:41;12.18;;;6.28;;
63536;SDS011;49686;51.880;5.632;2023-06-10T02:23:08;9.43;;;6.80;;
63536;SDS011;49686;51.880;5.632;2023-06-10T02:25:35;11.88;;;6.68;;
63536;SDS011;49686;51.880;5.632;2023-06-10T02:28:03;12.85;;;7.03;;
63536;SDS011;49686;51.880;5.632;2023-06-10T02:30:30;11.02;;;7.07;;
63536;SDS011;49686;51.880;5.632;2023-06-10T02:32:57;9.50;;;6.65;;
63536;SDS011;49686;51.880;5.632;2023-06-10T02:35:24;11.30;;;6.85;;
63536;SDS011;49686;51.880;5.632;2023-06-10T02:37:51;8.50;;;5.82;;
63536;SDS011;49686;51.880;5.632;2023-06-10T02:40:17;8.73;;;6.07;;
63536;SDS011;49686;51.880;5.632;2023-06-10T02:42:44;9.38;;;6.35;;
63536;SDS011;49686;51.880;5.632;2023-06-10T02:45:12;8.48;;;5.80;;
63536;SDS011;49686;51.880;5.632;2023-06-10T02:47:39;8.73;;;6.53;;
63536;SDS011;49686;51.880;5.632;2023-06-10T02:50:07;9.17;;;5.87;;
63536;SDS011;49686;51.880;5.632;2023-06-10T02:52:35;9.15;;;5.68;;
63536;SDS011;49686;51.880;5.632;2023-06-10T02:55:02;10.18;;;5.97;;
63536;SDS011;49686;51.880;5.632;2023-06-10T02:57:29;9.20;;;6.68;;
63536;SDS011;49686;51.880;5.632;2023-06-10T02:59:56;8.80;;;5.85;;
63536;SDS011;49686;51.880;5.632;2023-06-10T03:02:24;8.00;;;5.72;;
63536;SDS011;49686;51.880;5.632;2023-06-10T03:04:51;8.68;;;6.03;;
63536;SDS011;49686;51.880;5.632;2023-06-10T03:07:18;9.27;;;6.07;;
63536;SDS011;49686;51.880;5.632;2023-06-10T03:09:44;8.43;;;5.72;;
63536;SDS011;49686;51.880;5.632;2023-06-10T03:12:11;10.05;;;6.22;;
63536;SDS011;49686;51.880;5.632;2023-06-10T03:14:38;8.65;;;5.93;;
63536;SDS011;49686;51.880;5.632;2023-06-10T03:17:05;9.60;;;5.68;;
63536;SDS011;49686;51.880;5.632;2023-06-10T03:19:33;10.15;;;6.07;;
63536;SDS011;49686;51.880;5.632;2023-06-10T03:22:06;10.52;;;5.20;;
63536;SDS011;49686;51.880;5.632;2023-06-10T03:24:34;10.32;;;6.00;;
63536;SDS011;49686;51.880;5.632;2023-06-10T03:27:01;8.30;;;5.68;;
63536;SDS011;49686;51.880;5.632;2023-06-10T03:29:28;10.07;;;5.90;;
63536;SDS011;49686;51.880;5.632;2023-06-10T03:31:55;8.55;;;5.88;;
63536;SDS011;49686;51.880;5.632;2023-06-10T03:34:22;10.80;;;5.78;;
63536;SDS011;49686;51.880;5.632;2023-06-10T03:36:50;9.10;;;5.43;;
63536;SDS011;49686;51.880;5.632;2023-06-10T03:39:17;8.20;;;5.93;;
63536;SDS011;49686;51.880;5.632;2023-06-10T03:41:43;6.35;;;5.07;;
63536;SDS011;49686;51.880;5.632;2023-06-10T03:44:10;8.52;;;5.63;;
63536;SDS011;49686;51.880;5.632;2023-06-10T03:46:37;8.18;;;5.07;;
63536;SDS011;49686;51.880;5.632;2023-06-10T03:49:04;8.82;;;5.55;;
63536;SDS011;49686;51.880;5.632;2023-06-10T03:51:31;10.23;;;5.47;;
63536;SDS011;49686;51.880;5.632;2023-06-10T03:53:59;10.07;;;5.90;;
63536;SDS011;49686;51.880;5.632;2023-06-10T03:56:26;8.95;;;5.88;;
63536;SDS011;49686;51.880;5.632;2023-06-10T03:58:53;8.48;;;5.32;;
63536;SDS011;49686;51.880;5.632;2023-06-10T04:01:19;7.72;;;5.28;;
63536;SDS011;49686;51.880;5.632;2023-06-10T04:03:46;7.72;;;5.05;;
63536;SDS011;49686;51.880;5.632;2023-06-10T04:06:13;8.68;;;5.20;;
63536;SDS011;49686;51.880;5.632;2023-06-10T04:08:41;6.57;;;5.10;;
63536;SDS011;49686;51.880;5.632;2023-06-10T04:11:09;11.93;;;5.43;;
63536;SDS011;49686;51.880;5.632;2023-06-10T04:13:36;9.45;;;5.65;;
63536;SDS011;49686;51.880;5.632;2023-06-10T04:16:03;9.40;;;5.55;;
63536;SDS011;49686;51.880;5.632;2023-06-10T04:18:30;8.07;;;5.13;;
63536;SDS011;49686;51.880;5.632;2023-06-10T04:20:57;11.50;;;5.30;;
63536;SDS011;49686;51.880;5.632;2023-06-10T04:23:23;9.55;;;4.93;;
63536;SDS011;49686;51.880;5.632;2023-06-10T04:25:50;9.00;;;5.60;;
63536;SDS011;49686;51.880;5.632;2023-06-10T04:28:18;8.00;;;5.55;;
63536;SDS011;49686;51.880;5.632;2023-06-10T04:30:45;10.98;;;6.07;;
63536;SDS011;49686;51.880;5.632;2023-06-10T04:33:12;11.90;;;5.47;;
63536;SDS011;49686;51.880;5.632;2023-06-10T04:35:39;9.75;;;6.15;;
63536;SDS011;49686;51.880;5.632;2023-06-10T04:38:05;13.93;;;5.00;;
63536;SDS011;49686;51.880;5.632;2023-06-10T04:40:32;9.55;;;5.10;;
63536;SDS011;49686;51.880;5.632;2023-06-10T04:42:59;8.38;;;5.72;;
63536;SDS011;49686;51.880;5.632;2023-06-10T04:45:27;7.40;;;5.43;;
63536;SDS011;49686;51.880;5.632;2023-06-10T04:47:54;8.10;;;5.00;;
63536;SDS011;49686;51.880;5.632;2023-06-10T04:50:21;7.57;;;5.18;;
63536;SDS011;49686;51.880;5.632;2023-06-10T04:52:48;10.73;;;5.40;;
63536;SDS011;49686;51.880;5.632;2023-06-10T04:55:15;7.50;;;5.03;;
63536;SDS011;49686;51.880;5.632;2023-06-10T04:57:42;9.73;;;4.95;;
63536;SDS011;49686;51.880;5.632;2023-06-10T05:00:09;8.57;;;5.22;;
63536;SDS011;49686;51.880;5.632;2023-06-10T05:02:38;9.27;;;5.07;;
63536;SDS011;49686;51.880;5.632;2023-06-10T05:05:05;8.18;;;5.20;;
63536;SDS011;49686;51.880;5.632;2023-06-10T05:07:32;8.13;;;5.43;;
63536;SDS011;49686;51.880;5.632;2023-06-10T05:09:59;8.20;;;4.68;;
63536;SDS011;49686;51.880;5.632;2023-06-10T05:12:26;10.05;;;4.65;;
63536;SDS011;49686;51.880;5.632;2023-06-10T05:14:53;8.18;;;4.95;;
63536;SDS011;49686;51.880;5.632;2023-06-10T05:17:20;9.45;;;5.20;;
63536;SDS011;49686;51.880;5.632;2023-06-10T05:19:48;10.82;;;5.28;;
63536;SDS011;49686;51.880;5.632;2023-06-10T05:22:15;8.18;;;5.13;;
63536;SDS011;49686;51.880;5.632;2023-06-10T05:24:41;8.55;;;4.90;;
63536;SDS011;49686;51.880;5.632;2023-06-10T05:27:08;9.32;;;5.45;;
63536;SDS011;49686;51.880;5.632;2023-06-10T05:29:35;7.82;;;5.22;;
63536;SDS011;49686;51.880;5.632;2023-06-10T05:32:02;10.23;;;4.97;;
63536;SDS011;49686;51.880;5.632;2023-06-10T05:34:29;6.47;;;4.82;;
63536;SDS011;49686;51.880;5.632;2023-06-10T05:36:58;7.13;;;4.70;;
63536;SDS011;49686;51.880;5.632;2023-06-10T05:39:25;10.18;;;5.13;;
63536;SDS011;49686;51.880;5.632;2023-06-10T05:41:52;7.93;;;4.90;;
63536;SDS011;49686;51.880;5.632;2023-06-10T05:44:18;6.63;;;4.82;;
63536;SDS011;49686;51.880;5.632;2023-06-10T05:46:45;9.10;;;4.90;;
63536;SDS011;49686;51.880;5.632;2023-06-10T05:49:13;8.63;;;5.13;;
63536;SDS011;49686;51.880;5.632;2023-06-10T05:51:39;7.10;;;4.80;;
63536;SDS011;49686;51.880;5.632;2023-06-10T05:54:08;8.57;;;5.28;;
63536;SDS011;49686;51.880;5.632;2023-06-10T05:56:35;8.50;;;4.93;;
63536;SDS011;49686;51.880;5.632;2023-06-10T05:59:01;8.88;;;4.85;;
63536;SDS011;49686;51.880;5.632;2023-06-10T06:01:28;7.95;;;4.68;;
63536;SDS011;49686;51.880;5.632;2023-06-10T06:03:55;8.75;;;5.57;;
63536;SDS011;49686;51.880;5.632;2023-06-10T06:06:22;8.30;;;5.20;;
63536;SDS011;49686;51.880;5.632;2023-06-10T06:08:49;7.75;;;5.25;;
63536;SDS011;49686;51.880;5.632;2023-06-10T06:11:18;8.18;;;5.07;;
63536;SDS011;49686;51.880;5.632;2023-06-10T06:13:45;10.52;;;5.07;;
63536;SDS011;49686;51.880;5.632;2023-06-10T06:16:11;9.70;;;5.63;;
63536;SDS011;49686;51.880;5.632;2023-06-10T06:18:38;8.05;;;4.95;;
63536;SDS011;49686;51.880;5.632;2023-06-10T06:21:05;6.88;;;4.78;;
63536;SDS011;49686;51.880;5.632;2023-06-10T06:23:32;7.95;;;5.15;;
63536;SDS011;49686;51.880;5.632;2023-06-10T06:25:59;7.15;;;5.00;;
63536;SDS011;49686;51.880;5.632;2023-06-10T06:28:27;8.15;;;4.82;;
63536;SDS011;49686;51.880;5.632;2023-06-10T06:33:21;7.75;;;4.97;;
63536;SDS011;49686;51.880;5.632;2023-06-10T06:35:48;8.18;;;5.43;;
63536;SDS011;49686;51.880;5.632;2023-06-10T06:38:14;8.68;;;5.25;;
63536;SDS011;49686;51.880;5.632;2023-06-10T06:40:41;7.18;;;4.88;;
63536;SDS011;49686;51.880;5.632;2023-06-10T06:43:08;13.07;;;5.63;;
63536;SDS011;49686;51.880;5.632;2023-06-10T06:45:36;6.65;;;4.80;;
63536;SDS011;49686;51.880;5.632;2023-06-10T06:48:04;9.52;;;5.03;;
63536;SDS011;49686;51.880;5.632;2023-06-10T06:50:31;7.50;;;4.97;;
63536;SDS011;49686;51.880;5.632;2023-06-10T06:52:58;8.13;;;5.20;;
63536;SDS011;49686;51.880;5.632;2023-06-10T06:55:25;7.95;;;5.05;;
63536;SDS011;49686;51.880;5.632;2023-06-10T06:57:52;7.28;;;5.00;;
63536;SDS011;49686;51.880;5.632;2023-06-10T07:00:19;9.05;;;4.95;;
63536;SDS011;49686;51.880;5.632;2023-06-10T07:02:47;9.85;;;4.95;;
63536;SDS011;49686;51.880;5.632;2023-06-10T07:07:41;10.18;;;4.80;;
63536;SDS011;49686;51.880;5.632;2023-06-10T07:10:08;6.57;;;4.88;;
63536;SDS011;49686;51.880;5.632;2023-06-10T07:12:35;8.00;;;4.75;;
63536;SDS011;49686;51.880;5.632;2023-06-10T07:15:02;9.70;;;4.78;;
63536;SDS011;49686;51.880;5.632;2023-06-10T07:17:29;10.85;;;4.80;;
63536;SDS011;49686;51.880;5.632;2023-06-10T07:19:58;8.63;;;5.30;;
63536;SDS011;49686;51.880;5.632;2023-06-10T07:22:24;9.95;;;5.45;;
63536;SDS011;49686;51.880;5.632;2023-06-10T07:24:51;9.18;;;5.40;;
63536;SDS011;49686;51.880;5.632;2023-06-10T07:27:18;9.77;;;5.18;;
63536;SDS011;49686;51.880;5.632;2023-06-10T07:29:45;13.30;;;5.80;;
63536;SDS011;49686;51.880;5.632;2023-06-10T07:32:11;7.45;;;4.95;;
63536;SDS011;49686;51.880;5.632;2023-06-10T07:34:38;10.18;;;5.13;;
63536;SDS011;49686;51.880;5.632;2023-06-10T07:37:06;9.43;;;5.10;;
63536;SDS011;49686;51.880;5.632;2023-06-10T07:39:33;7.25;;;5.15;;
63536;SDS011;49686;51.880;5.632;2023-06-10T07:42:00;7.40;;;4.90;;
63536;SDS011;49686;51.880;5.632;2023-06-10T07:44:27;9.07;;;4.97;;
63536;SDS011;49686;51.880;5.632;2023-06-10T07:46:54;6.28;;;4.78;;
63536;SDS011;49686;51.880;5.632;2023-06-10T07:49:21;9.07;;;5.28;;
63536;SDS011;49686;51.880;5.632;2023-06-10T07:51:49;8.63;;;4.85;;
63536;SDS011;49686;51.880;5.632;2023-06-10T07:54:17;10.52;;;5.82;;
63536;SDS011;49686;51.880;5.632;2023-06-10T07:56:44;8.98;;;4.47;;
63536;SDS011;49686;51.880;5.632;2023-06-10T07:59:11;11.13;;;5.13;;
63536;SDS011;49686;51.880;5.632;2023-06-10T08:01:38;9.75;;;5.35;;
63536;SDS011;49686;51.880;5.632;2023-06-10T08:04:05;8.98;;;4.72;;
63536;SDS011;49686;51.880;5.632;2023-06-10T08:06:32;8.27;;;5.30;;
63536;SDS011;49686;51.880;5.632;2023-06-10T08:08:59;9.13;;;5.40;;
63536;SDS011;49686;51.880;5.632;2023-06-10T08:11:27;6.88;;;4.80;;
63536;SDS011;49686;51.880;5.632;2023-06-10T08:16:20;10.68;;;6.70;;
63536;SDS011;49686;51.880;5.632;2023-06-10T08:18:47;9.75;;;5.82;;
63536;SDS011;49686;51.880;5.632;2023-06-10T08:21:14;8.35;;;5.10;;
63536;SDS011;49686;51.880;5.632;2023-06-10T08:23:41;7.32;;;4.60;;
63536;SDS011;49686;51.880;5.632;2023-06-10T08:26:08;8.30;;;5.05;;
63536;SDS011;49686;51.880;5.632;2023-06-10T08:28:36;8.55;;;5.10;;
63536;SDS011;49686;51.880;5.632;2023-06-10T08:31:03;6.65;;;4.80;;
63536;SDS011;49686;51.880;5.632;2023-06-10T08:33:30;7.28;;;4.68;;
63536;SDS011;49686;51.880;5.632;2023-06-10T08:35:56;7.53;;;5.25;;
63536;SDS011;49686;51.880;5.632;2023-06-10T08:38:23;5.85;;;4.50;;
63536;SDS011;49686;51.880;5.632;2023-06-10T08:40:50;8.05;;;4.68;;
63536;SDS011;49686;51.880;5.632;2023-06-10T08:43:22;9.88;;;5.30;;
63536;SDS011;49686;51.880;5.632;2023-06-10T08:45:57;8.93;;;5.10;;
63536;SDS011;49686;51.880;5.632;2023-06-10T08:48:26;7.60;;;4.82;;
63536;SDS011;49686;51.880;5.632;2023-06-10T08:50:55;5.78;;;4.45;;
63536;SDS011;49686;51.880;5.632;2023-06-10T08:53:23;9.40;;;4.57;;
63536;SDS011;49686;51.880;5.632;2023-06-10T08:55:52;6.90;;;4.95;;
63536;SDS011;49686;51.880;5.632;2023-06-10T08:58:21;7.50;;;5.30;;
63536;SDS011;49686;51.880;5.632;2023-06-10T09:00:48;8.07;;;4.60;;
63536;SDS011;49686;51.880;5.632;2023-06-10T09:03:18;6.13;;;4.80;;
63536;SDS011;49686;51.880;5.632;2023-06-10T09:05:45;7.95;;;5.00;;
63536;SDS011;49686;51.880;5.632;2023-06-10T09:08:12;9.82;;;4.60;;
63536;SDS011;49686;51.880;5.632;2023-06-10T09:10:39;7.90;;;5.20;;
63536;SDS011;49686;51.880;5.632;2023-06-10T09:13:07;16.87;;;5.00;;
63536;SDS011;49686;51.880;5.632;2023-06-10T09:15:34;8.05;;;4.60;;
63536;SDS011;49686;51.880;5.632;2023-06-10T09:18:00;8.27;;;5.15;;
63536;SDS011;49686;51.880;5.632;2023-06-10T09:20:29;6.90;;;4.28;;
63536;SDS011;49686;51.880;5.632;2023-06-10T09:22:55;6.38;;;4.63;;
63536;SDS011;49686;51.880;5.632;2023-06-10T09:25:33;6.10;;;4.88;;
63536;SDS011;49686;51.880;5.632;2023-06-10T09:28:01;8.57;;;4.47;;
63536;SDS011;49686;51.880;5.632;2023-06-10T09:30:29;8.48;;;4.82;;
63536;SDS011;49686;51.880;5.632;2023-06-10T09:32:57;9.93;;;5.05;;
63536;SDS011;49686;51.880;5.632;2023-06-10T09:35:26;8.93;;;4.78;;
63536;SDS011;49686;51.880;5.632;2023-06-10T09:37:56;9.13;;;4.60;;
63536;SDS011;49686;51.880;5.632;2023-06-10T09:40:24;8.35;;;4.90;;
63536;SDS011;49686;51.880;5.632;2023-06-10T09:42:52;7.90;;;4.72;;
63536;SDS011;49686;51.880;5.632;2023-06-10T09:45:20;9.07;;;4.63;;
63536;SDS011;49686;51.880;5.632;2023-06-10T09:47:51;6.53;;;4.83;;
63536;SDS011;49686;51.880;5.632;2023-06-10T09:50:18;9.05;;;4.82;;
63536;SDS011;49686;51.880;5.632;2023-06-10T09:52:46;7.65;;;4.97;;
63536;SDS011;49686;51.880;5.632;2023-06-10T09:55:14;6.57;;;4.78;;
63536;SDS011;49686;51.880;5.632;2023-06-10T09:57:41;8.27;;;4.80;;
63536;SDS011;49686;51.880;5.632;2023-06-10T10:00:08;9.65;;;5.00;;
63536;SDS011;49686;51.880;5.632;2023-06-10T10:02:43;8.85;;;4.63;;
63536;SDS011;49686;51.880;5.632;2023-06-10T10:05:12;8.10;;;4.90;;
63536;SDS011;49686;51.880;5.632;2023-06-10T10:07:40;6.22;;;5.10;;
63536;SDS011;49686;51.880;5.632;2023-06-10T10:10:10;8.60;;;4.68;;
63536;SDS011;49686;51.880;5.632;2023-06-10T10:12:38;7.85;;;5.00;;
63536;SDS011;49686;51.880;5.632;2023-06-10T10:15:06;7.00;;;4.55;;
63536;SDS011;49686;51.880;5.632;2023-06-10T10:17:36;7.07;;;4.63;;
63536;SDS011;49686;51.880;5.632;2023-06-10T10:20:06;17.20;;;5.32;;
63536;SDS011;49686;51.880;5.632;2023-06-10T10:22:39;10.00;;;4.80;;
63536;SDS011;49686;51.880;5.632;2023-06-10T10:25:08;7.03;;;4.78;;
63536;SDS011;49686;51.880;5.632;2023-06-10T10:27:41;8.23;;;4.28;;
63536;SDS011;49686;51.880;5.632;2023-06-10T10:30:11;6.68;;;4.80;;
63536;SDS011;49686;51.880;5.632;2023-06-10T10:32:42;9.07;;;4.57;;
63536;SDS011;49686;51.880;5.632;2023-06-10T10:35:17;8.50;;;4.60;;
63536;SDS011;49686;51.880;5.632;2023-06-10T10:37:47;5.75;;;4.32;;
63536;SDS011;49686;51.880;5.632;2023-06-10T10:40:15;6.43;;;4.32;;
63536;SDS011;49686;51.880;5.632;2023-06-10T10:42:43;6.13;;;3.90;;
63536;SDS011;49686;51.880;5.632;2023-06-10T10:45:10;4.75;;;4.20;;
63536;SDS011;49686;51.880;5.632;2023-06-10T10:47:38;6.10;;;4.00;;
63536;SDS011;49686;51.880;5.632;2023-06-10T10:50:12;6.78;;;3.80;;
63536;SDS011;49686;51.880;5.632;2023-06-10T10:52:51;7.22;;;4.25;;
63536;SDS011;49686;51.880;5.632;2023-06-10T10:55:21;10.15;;;4.18;;
63536;SDS011;49686;51.880;5.632;2023-06-10T10:57:53;7.22;;;4.55;;
63536;SDS011;49686;51.880;5.632;2023-06-10T11:00:26;7.60;;;4.00;;
63536;SDS011;49686;51.880;5.632;2023-06-10T11:02:56;4.68;;;3.67;;
63536;SDS011;49686;51.880;5.632;2023-06-10T11:05:31;6.35;;;4.00;;
63536;SDS011;49686;51.880;5.632;2023-06-10T11:08:02;6.65;;;3.65;;
63536;SDS011;49686;51.880;5.632;2023-06-10T11:10:31;5.53;;;3.80;;
63536;SDS011;49686;51.880;5.632;2023-06-10T11:12:59;5.65;;;3.72;;
63536;SDS011;49686;51.880;5.632;2023-06-10T11:15:27;6.85;;;4.00;;
63536;SDS011;49686;51.880;5.632;2023-06-10T11:20:52;5.40;;;4.22;;
63536;SDS011;49686;51.880;5.632;2023-06-10T11:23:33;8.02;;;4.00;;
63536;SDS011;49686;51.880;5.632;2023-06-10T11:26:11;3.70;;;3.40;;
63536;SDS011;49686;51.880;5.632;2023-06-10T11:31:29;7.45;;;3.75;;
63536;SDS011;49686;51.880;5.632;2023-06-10T11:33:58;6.00;;;4.30;;
63536;SDS011;49686;51.880;5.632;2023-06-10T11:36:26;6.68;;;3.80;;
63536;SDS011;49686;51.880;5.632;2023-06-10T11:38:55;8.13;;;3.90;;
63536;SDS011;49686;51.880;5.632;2023-06-10T11:41:24;8.30;;;3.88;;
63536;SDS011;49686;51.880;5.632;2023-06-10T11:43:52;5.88;;;3.65;;
63536;SDS011;49686;51.880;5.632;2023-06-10T11:46:20;4.78;;;3.63;;
63536;SDS011;49686;51.880;5.632;2023-06-10T11:48:49;6.00;;;3.63;;
63536;SDS011;49686;51.880;5.632;2023-06-10T11:51:17;4.60;;;3.72;;
63536;SDS011;49686;51.880;5.632;2023-06-10T11:53:44;5.15;;;4.05;;
63536;SDS011;49686;51.880;5.632;2023-06-10T11:56:11;5.68;;;3.97;;
63536;SDS011;49686;51.880;5.632;2023-06-10T11:58:39;5.47;;;3.60;;
63536;SDS011;49686;51.880;5.632;2023-06-10T12:01:11;6.40;;;3.83;;
63536;SDS011;49686;51.880;5.632;2023-06-10T12:03:58;6.47;;;3.92;;
63536;SDS011;49686;51.880;5.632;2023-06-10T12:06:26;6.40;;;3.97;;
63536;SDS011;49686;51.880;5.632;2023-06-10T12:08:53;4.70;;;3.60;;
63536;SDS011;49686;51.880;5.632;2023-06-10T12:11:20;5.00;;;4.10;;
63536;SDS011;49686;51.880;5.632;2023-06-10T12:13:48;5.43;;;4.18;;
63536;SDS011;49686;51.880;5.632;2023-06-10T12:16:16;7.15;;;4.00;;
63536;SDS011;49686;51.880;5.632;2023-06-10T12:18:43;4.95;;;4.10;;
63536;SDS011;49686;51.880;5.632;2023-06-10T12:21:17;7.88;;;4.10;;
63536;SDS011;49686;51.880;5.632;2023-06-10T12:24:01;4.13;;;3.58;;
63536;SDS011;49686;51.880;5.632;2023-06-10T12:26:39;6.65;;;4.30;;
63536;SDS011;49686;51.880;5.632;2023-06-10T12:29:21;4.50;;;3.63;;
63536;SDS011;49686;51.880;5.632;2023-06-10T12:31:58;7.22;;;4.07;;
63536;SDS011;49686;51.880;5.632;2023-06-10T12:34:31;6.25;;;3.75;;
63536;SDS011;49686;51.880;5.632;2023-06-10T12:36:59;5.95;;;4.38;;
63536;SDS011;49686;51.880;5.632;2023-06-10T12:39:26;5.93;;;4.20;;
63536;SDS011;49686;51.880;5.632;2023-06-10T12:41:52;7.75;;;4.43;;
63536;SDS011;49686;51.880;5.632;2023-06-10T12:44:29;9.13;;;3.90;;
63536;SDS011;49686;51.880;5.632;2023-06-10T12:46:57;5.10;;;3.90;;
63536;SDS011;49686;51.880;5.632;2023-06-10T12:49:24;4.80;;;3.80;;
63536;SDS011;49686;51.880;5.632;2023-06-10T12:51:51;4.93;;;3.75;;
63536;SDS011;49686;51.880;5.632;2023-06-10T12:54:18;6.53;;;4.07;;
63536;SDS011;49686;51.880;5.632;2023-06-10T12:56:44;5.43;;;3.80;;
63536;SDS011;49686;51.880;5.632;2023-06-10T12:59:11;5.05;;;3.83;;
63536;SDS011;49686;51.880;5.632;2023-06-10T13:01:39;6.63;;;3.80;;
63536;SDS011;49686;51.880;5.632;2023-06-10T13:04:06;4.88;;;3.70;;
63536;SDS011;49686;51.880;5.632;2023-06-10T13:06:33;5.53;;;3.72;;
63536;SDS011;49686;51.880;5.632;2023-06-10T13:09:00;5.93;;;4.03;;
63536;SDS011;49686;51.880;5.632;2023-06-10T13:11:27;9.27;;;3.92;;
63536;SDS011;49686;51.880;5.632;2023-06-10T13:13:53;5.60;;;4.10;;
63536;SDS011;49686;51.880;5.632;2023-06-10T13:16:20;6.60;;;4.25;;
63536;SDS011;49686;51.880;5.632;2023-06-10T13:18:49;6.55;;;4.15;;
63536;SDS011;49686;51.880;5.632;2023-06-10T13:21:15;6.75;;;3.83;;
63536;SDS011;49686;51.880;5.632;2023-06-10T13:23:43;4.90;;;3.90;;
63536;SDS011;49686;51.880;5.632;2023-06-10T13:26:10;7.45;;;4.00;;
63536;SDS011;49686;51.880;5.632;2023-06-10T13:28:37;4.45;;;3.67;;
63536;SDS011;49686;51.880;5.632;2023-06-10T13:31:04;8.13;;;4.18;;
63536;SDS011;49686;51.880;5.632;2023-06-10T13:33:31;5.75;;;4.03;;
63536;SDS011;49686;51.880;5.632;2023-06-10T13:35:59;7.35;;;4.00;;
63536;SDS011;49686;51.880;5.632;2023-06-10T13:40:52;5.85;;;3.58;;
63536;SDS011;49686;51.880;5.632;2023-06-10T13:43:19;4.85;;;3.97;;
63536;SDS011;49686;51.880;5.632;2023-06-10T13:45:46;6.50;;;3.90;;
63536;SDS011;49686;51.880;5.632;2023-06-10T13:48:13;6.78;;;3.72;;
63536;SDS011;49686;51.880;5.632;2023-06-10T13:50:40;6.57;;;3.65;;
63536;SDS011;49686;51.880;5.632;2023-06-10T13:53:08;7.00;;;4.00;;
63536;SDS011;49686;51.880;5.632;2023-06-10T13:55:35;9.40;;;4.20;;
63536;SDS011;49686;51.880;5.632;2023-06-10T13:58:01;5.72;;;3.80;;
63536;SDS011;49686;51.880;5.632;2023-06-10T14:00:28;8.65;;;4.63;;
63536;SDS011;49686;51.880;5.632;2023-06-10T14:02:55;6.65;;;3.80;;
63536;SDS011;49686;51.880;5.632;2023-06-10T14:05:22;5.43;;;3.80;;
63536;SDS011;49686;51.880;5.632;2023-06-10T14:07:49;4.15;;;3.65;;
63536;SDS011;49686;51.880;5.632;2023-06-10T14:10:17;4.43;;;3.75;;
63536;SDS011;49686;51.880;5.632;2023-06-10T14:12:44;7.32;;;3.70;;
63536;SDS011;49686;51.880;5.632;2023-06-10T14:15:11;10.35;;;4.10;;
63536;SDS011;49686;51.880;5.632;2023-06-10T14:17:38;7.18;;;3.80;;
63536;SDS011;49686;51.880;5.632;2023-06-10T14:20:06;5.78;;;4.00;;
63536;SDS011;49686;51.880;5.632;2023-06-10T14:22:33;5.45;;;3.85;;
63536;SDS011;49686;51.880;5.632;2023-06-10T14:25:00;5.85;;;4.00;;
63536;SDS011;49686;51.880;5.632;2023-06-10T14:27:28;6.80;;;3.85;;
63536;SDS011;49686;51.880;5.632;2023-06-10T14:29:55;7.00;;;3.75;;
63536;SDS011;49686;51.880;5.632;2023-06-10T14:32:22;6.50;;;3.97;;
63536;SDS011;49686;51.880;5.632;2023-06-10T14:34:49;5.90;;;3.87;;
63536;SDS011;49686;51.880;5.632;2023-06-10T14:37:16;6.82;;;4.15;;
63536;SDS011;49686;51.880;5.632;2023-06-10T14:39:42;9.68;;;4.25;;
63536;SDS011;49686;51.880;5.632;2023-06-10T14:42:09;6.88;;;3.80;;
63536;SDS011;49686;51.880;5.632;2023-06-10T14:44:37;5.90;;;4.30;;
63536;SDS011;49686;51.880;5.632;2023-06-10T14:49:31;6.15;;;3.97;;
63536;SDS011;49686;51.880;5.632;2023-06-10T14:51:58;7.50;;;4.60;;
63536;SDS011;49686;51.880;5.632;2023-06-10T14:54:25;6.97;;;3.90;;
63536;SDS011;49686;51.880;5.632;2023-06-10T14:56:51;7.50;;;4.03;;
63536;SDS011;49686;51.880;5.632;2023-06-10T14:59:18;7.18;;;4.43;;
63536;SDS011;49686;51.880;5.632;2023-06-10T15:01:46;6.25;;;3.90;;
63536;SDS011;49686;51.880;5.632;2023-06-10T15:04:13;7.07;;;4.10;;
63536;SDS011;49686;51.880;5.632;2023-06-10T15:06:40;5.10;;;3.95;;